sensor_id;sensor_type;location;lat;lon;timestamp;P1;durP1;ratioP1;P2;durP2;ratioP2
64903;SDS011;51401;48.882;12.598;2023-05-10T00:01:54;4.20;;;3.20;;
64903;SDS011;51401;48.882;12.598;2023-05-10T00:04:19;4.40;;;3.50;;
64903;SDS011;51401;48.882;12.598;2023-05-10T00:06:44;3.90;;;3.25;;
64903;SDS011;51401;48.882;12.598;2023-05-10T00:09:10;3.72;;;3.28;;
64903;SDS011;51401;48.882;12.598;2023-05-10T00:11:35;4.47;;;3.53;;
64903;SDS011;51401;48.882;12.598;2023-05-10T00:14:00;6.57;;;3.70;;
64903;SDS011;51401;48.882;12.598;2023-05-10T00:16:26;4.57;;;3.80;;
64903;SDS011;51401;48.882;12.598;2023-05-10T00:18:54;5.73;;;4.13;;
64903;SDS011;51401;48.882;12.598;2023-05-10T00:21:19;5.63;;;3.75;;
64903;SDS011;51401;48.882;12.598;2023-05-10T00:23:44;7.28;;;4.45;;
64903;SDS011;51401;48.882;12.598;2023-05-10T00:26:09;5.33;;;3.90;;
64903;SDS011;51401;48.882;12.598;2023-05-10T00:28:35;4.68;;;3.47;;
64903;SDS011;51401;48.882;12.598;2023-05-10T00:31:00;4.82;;;3.70;;
64903;SDS011;51401;48.882;12.598;2023-05-10T00:33:25;4.80;;;4.30;;
64903;SDS011;51401;48.882;12.598;2023-05-10T00:35:51;4.28;;;3.85;;
64903;SDS011;51401;48.882;12.598;2023-05-10T00:38:16;4.05;;;3.60;;
64903;SDS011;51401;48.882;12.598;2023-05-10T00:40:42;4.45;;;3.65;;
64903;SDS011;51401;48.882;12.598;2023-05-10T00:43:07;4.20;;;3.80;;
64903;SDS011;51401;48.882;12.598;2023-05-10T00:45:33;4.47;;;3.80;;
64903;SDS011;51401;48.882;12.598;2023-05-10T00:48:03;4.55;;;4.07;;
64903;SDS011;51401;48.882;12.598;2023-05-10T00:50:30;5.00;;;4.00;;
64903;SDS011;51401;48.882;12.598;2023-05-10T00:52:57;5.35;;;4.03;;
64903;SDS011;51401;48.882;12.598;2023-05-10T00:55:24;5.65;;;4.45;;
64903;SDS011;51401;48.882;12.598;2023-05-10T00:57:50;4.68;;;3.83;;
64903;SDS011;51401;48.882;12.598;2023-05-10T01:00:16;5.38;;;3.88;;
64903;SDS011;51401;48.882;12.598;2023-05-10T01:02:44;4.90;;;4.40;;
64903;SDS011;51401;48.882;12.598;2023-05-10T01:05:10;5.88;;;4.47;;
64903;SDS011;51401;48.882;12.598;2023-05-10T01:07:35;5.55;;;4.40;;
64903;SDS011;51401;48.882;12.598;2023-05-10T01:10:01;5.75;;;4.00;;
64903;SDS011;51401;48.882;12.598;2023-05-10T01:12:26;6.07;;;4.50;;
64903;SDS011;51401;48.882;12.598;2023-05-10T01:14:51;4.78;;;4.25;;
64903;SDS011;51401;48.882;12.598;2023-05-10T01:17:17;4.95;;;3.72;;
64903;SDS011;51401;48.882;12.598;2023-05-10T01:19:43;5.82;;;4.35;;
64903;SDS011;51401;48.882;12.598;2023-05-10T01:30:44;6.60;;;3.90;;
64903;SDS011;51401;48.882;12.598;2023-05-10T01:33:25;5.78;;;4.68;;
64903;SDS011;51401;48.882;12.598;2023-05-10T01:38:24;6.32;;;4.32;;
64903;SDS011;51401;48.882;12.598;2023-05-10T01:41:01;5.68;;;4.38;;
64903;SDS011;51401;48.882;12.598;2023-05-10T01:43:30;6.18;;;4.80;;
64903;SDS011;51401;48.882;12.598;2023-05-10T01:46:02;5.93;;;4.47;;
64903;SDS011;51401;48.882;12.598;2023-05-10T01:48:35;7.10;;;4.72;;
64903;SDS011;51401;48.882;12.598;2023-05-10T01:51:05;7.72;;;5.07;;
64903;SDS011;51401;48.882;12.598;2023-05-10T01:53:31;6.40;;;4.78;;
64903;SDS011;51401;48.882;12.598;2023-05-10T01:56:02;6.63;;;4.57;;
64903;SDS011;51401;48.882;12.598;2023-05-10T01:58:29;6.30;;;4.55;;
64903;SDS011;51401;48.882;12.598;2023-05-10T02:00:58;5.55;;;4.78;;
64903;SDS011;51401;48.882;12.598;2023-05-10T02:03:26;5.88;;;4.15;;
64903;SDS011;51401;48.882;12.598;2023-05-10T02:05:53;4.95;;;4.03;;
64903;SDS011;51401;48.882;12.598;2023-05-10T02:08:20;5.97;;;4.97;;
64903;SDS011;51401;48.882;12.598;2023-05-10T02:10:46;7.13;;;5.07;;
64903;SDS011;51401;48.882;12.598;2023-05-10T02:13:14;5.65;;;4.72;;
64903;SDS011;51401;48.882;12.598;2023-05-10T02:15:41;6.88;;;4.40;;
64903;SDS011;51401;48.882;12.598;2023-05-10T02:18:08;5.57;;;4.57;;
64903;SDS011;51401;48.882;12.598;2023-05-10T02:20:35;6.10;;;4.47;;
64903;SDS011;51401;48.882;12.598;2023-05-10T02:23:02;5.03;;;4.25;;
64903;SDS011;51401;48.882;12.598;2023-05-10T02:25:28;5.47;;;4.15;;
64903;SDS011;51401;48.882;12.598;2023-05-10T02:27:55;5.55;;;4.40;;
64903;SDS011;51401;48.882;12.598;2023-05-10T02:30:22;7.03;;;4.53;;
64903;SDS011;51401;48.882;12.598;2023-05-10T02:32:49;6.63;;;4.13;;
64903;SDS011;51401;48.882;12.598;2023-05-10T02:35:16;6.72;;;4.97;;
64903;SDS011;51401;48.882;12.598;2023-05-10T02:37:41;5.75;;;4.70;;
64903;SDS011;51401;48.882;12.598;2023-05-10T02:40:08;6.68;;;4.75;;
64903;SDS011;51401;48.882;12.598;2023-05-10T02:42:35;6.20;;;5.25;;
64903;SDS011;51401;48.882;12.598;2023-05-10T02:45:04;6.63;;;4.80;;
64903;SDS011;51401;48.882;12.598;2023-05-10T02:47:32;5.15;;;4.57;;
64903;SDS011;51401;48.882;12.598;2023-05-10T02:49:58;7.63;;;5.18;;
64903;SDS011;51401;48.882;12.598;2023-05-10T02:52:24;8.30;;;4.60;;
64903;SDS011;51401;48.882;12.598;2023-05-10T02:54:54;8.68;;;5.18;;
64903;SDS011;51401;48.882;12.598;2023-05-10T02:57:22;7.00;;;4.95;;
64903;SDS011;51401;48.882;12.598;2023-05-10T02:59:52;5.72;;;4.75;;
64903;SDS011;51401;48.882;12.598;2023-05-10T03:02:17;6.43;;;5.00;;
64903;SDS011;51401;48.882;12.598;2023-05-10T03:04:42;5.53;;;4.43;;
64903;SDS011;51401;48.882;12.598;2023-05-10T03:07:08;6.53;;;4.60;;
64903;SDS011;51401;48.882;12.598;2023-05-10T03:09:33;5.75;;;4.55;;
64903;SDS011;51401;48.882;12.598;2023-05-10T03:20:22;8.23;;;5.03;;
64903;SDS011;51401;48.882;12.598;2023-05-10T03:25:18;5.57;;;4.30;;
64903;SDS011;51401;48.882;12.598;2023-05-10T03:27:45;6.15;;;4.68;;
64903;SDS011;51401;48.882;12.598;2023-05-10T03:30:12;8.63;;;5.90;;
64903;SDS011;51401;48.882;12.598;2023-05-10T03:32:38;5.50;;;4.57;;
64903;SDS011;51401;48.882;12.598;2023-05-10T03:35:08;6.28;;;4.80;;
64903;SDS011;51401;48.882;12.598;2023-05-10T03:37:33;6.75;;;5.18;;
64903;SDS011;51401;48.882;12.598;2023-05-10T03:39:59;7.65;;;5.25;;
64903;SDS011;51401;48.882;12.598;2023-05-10T03:42:25;6.35;;;5.20;;
64903;SDS011;51401;48.882;12.598;2023-05-10T03:44:50;5.60;;;4.93;;
64903;SDS011;51401;48.882;12.598;2023-05-10T03:47:15;7.78;;;5.63;;
64903;SDS011;51401;48.882;12.598;2023-05-10T03:49:40;7.00;;;6.23;;
64903;SDS011;51401;48.882;12.598;2023-05-10T03:52:05;8.73;;;5.90;;
64903;SDS011;51401;48.882;12.598;2023-05-10T03:54:31;6.75;;;5.38;;
64903;SDS011;51401;48.882;12.598;2023-05-10T03:56:57;7.22;;;6.03;;
64903;SDS011;51401;48.882;12.598;2023-05-10T03:59:22;9.48;;;6.32;;
64903;SDS011;51401;48.882;12.598;2023-05-10T04:01:47;7.67;;;6.43;;
64903;SDS011;51401;48.882;12.598;2023-05-10T04:04:13;7.53;;;6.20;;
64903;SDS011;51401;48.882;12.598;2023-05-10T04:06:38;9.20;;;6.07;;
64903;SDS011;51401;48.882;12.598;2023-05-10T04:09:03;8.68;;;6.68;;
64903;SDS011;51401;48.882;12.598;2023-05-10T04:11:29;7.80;;;6.43;;
64903;SDS011;51401;48.882;12.598;2023-05-10T04:13:54;8.63;;;6.28;;
64903;SDS011;51401;48.882;12.598;2023-05-10T04:16:19;10.15;;;6.78;;
64903;SDS011;51401;48.882;12.598;2023-05-10T04:18:45;8.95;;;6.47;;
64903;SDS011;51401;48.882;12.598;2023-05-10T04:21:11;8.95;;;6.20;;
64903;SDS011;51401;48.882;12.598;2023-05-10T04:23:37;7.35;;;6.22;;
64903;SDS011;51401;48.882;12.598;2023-05-10T04:26:03;9.23;;;6.63;;
64903;SDS011;51401;48.882;12.598;2023-05-10T04:28:28;9.98;;;6.70;;
64903;SDS011;51401;48.882;12.598;2023-05-10T04:30:59;10.80;;;6.63;;
64903;SDS011;51401;48.882;12.598;2023-05-10T04:33:25;8.27;;;6.05;;
64903;SDS011;51401;48.882;12.598;2023-05-10T04:35:51;10.07;;;6.23;;
64903;SDS011;51401;48.882;12.598;2023-05-10T04:38:16;10.50;;;6.95;;
64903;SDS011;51401;48.882;12.598;2023-05-10T04:40:41;8.88;;;7.40;;
64903;SDS011;51401;48.882;12.598;2023-05-10T04:43:07;8.55;;;6.35;;
64903;SDS011;51401;48.882;12.598;2023-05-10T04:45:32;10.73;;;7.33;;
64903;SDS011;51401;48.882;12.598;2023-05-10T04:47:57;9.27;;;7.10;;
64903;SDS011;51401;48.882;12.598;2023-05-10T04:50:22;10.43;;;7.80;;
64903;SDS011;51401;48.882;12.598;2023-05-10T04:52:48;9.60;;;7.40;;
64903;SDS011;51401;48.882;12.598;2023-05-10T04:55:13;8.55;;;6.72;;
64903;SDS011;51401;48.882;12.598;2023-05-10T04:57:38;8.55;;;6.70;;
64903;SDS011;51401;48.882;12.598;2023-05-10T05:00:04;12.10;;;7.57;;
64903;SDS011;51401;48.882;12.598;2023-05-10T05:02:30;9.27;;;7.63;;
64903;SDS011;51401;48.882;12.598;2023-05-10T05:04:56;11.68;;;7.35;;
64903;SDS011;51401;48.882;12.598;2023-05-10T05:07:22;11.10;;;7.65;;
64903;SDS011;51401;48.882;12.598;2023-05-10T05:09:48;8.75;;;6.93;;
64903;SDS011;51401;48.882;12.598;2023-05-10T05:12:13;9.18;;;6.90;;
64903;SDS011;51401;48.882;12.598;2023-05-10T05:14:39;9.23;;;7.25;;
64903;SDS011;51401;48.882;12.598;2023-05-10T05:17:05;9.20;;;6.90;;
64903;SDS011;51401;48.882;12.598;2023-05-10T05:19:30;11.33;;;7.60;;
64903;SDS011;51401;48.882;12.598;2023-05-10T05:21:56;12.45;;;8.30;;
64903;SDS011;51401;48.882;12.598;2023-05-10T05:24:21;9.77;;;6.83;;
64903;SDS011;51401;48.882;12.598;2023-05-10T05:26:46;8.70;;;6.65;;
64903;SDS011;51401;48.882;12.598;2023-05-10T05:29:12;10.90;;;7.50;;
64903;SDS011;51401;48.882;12.598;2023-05-10T05:31:37;11.98;;;8.50;;
64903;SDS011;51401;48.882;12.598;2023-05-10T05:34:02;11.65;;;8.32;;
64903;SDS011;51401;48.882;12.598;2023-05-10T05:36:28;11.68;;;7.97;;
64903;SDS011;51401;48.882;12.598;2023-05-10T05:38:53;11.27;;;7.40;;
64903;SDS011;51401;48.882;12.598;2023-05-10T05:41:18;11.85;;;8.63;;
64903;SDS011;51401;48.882;12.598;2023-05-10T05:43:46;11.77;;;8.55;;
64903;SDS011;51401;48.882;12.598;2023-05-10T05:46:12;11.77;;;7.68;;
64903;SDS011;51401;48.882;12.598;2023-05-10T05:48:37;13.15;;;8.90;;
64903;SDS011;51401;48.882;12.598;2023-05-10T05:51:02;10.73;;;8.02;;
64903;SDS011;51401;48.882;12.598;2023-05-10T05:53:28;11.35;;;8.48;;
64903;SDS011;51401;48.882;12.598;2023-05-10T05:55:54;9.20;;;7.10;;
64903;SDS011;51401;48.882;12.598;2023-05-10T05:58:20;11.43;;;8.05;;
64903;SDS011;51401;48.882;12.598;2023-05-10T06:00:46;13.02;;;9.00;;
64903;SDS011;51401;48.882;12.598;2023-05-10T06:03:11;10.70;;;8.02;;
64903;SDS011;51401;48.882;12.598;2023-05-10T06:05:37;14.48;;;8.57;;
64903;SDS011;51401;48.882;12.598;2023-05-10T06:08:02;12.05;;;8.88;;
64903;SDS011;51401;48.882;12.598;2023-05-10T06:10:28;12.85;;;8.50;;
64903;SDS011;51401;48.882;12.598;2023-05-10T06:12:53;10.80;;;8.18;;
64903;SDS011;51401;48.882;12.598;2023-05-10T06:15:18;9.70;;;7.50;;
64903;SDS011;51401;48.882;12.598;2023-05-10T06:17:44;11.75;;;9.15;;
64903;SDS011;51401;48.882;12.598;2023-05-10T06:20:10;10.85;;;7.50;;
64903;SDS011;51401;48.882;12.598;2023-05-10T06:22:35;10.88;;;7.45;;
64903;SDS011;51401;48.882;12.598;2023-05-10T06:25:01;11.67;;;8.00;;
64903;SDS011;51401;48.882;12.598;2023-05-10T06:27:27;11.82;;;9.02;;
64903;SDS011;51401;48.882;12.598;2023-05-10T06:29:52;10.70;;;8.32;;
64903;SDS011;51401;48.882;12.598;2023-05-10T06:32:17;10.67;;;8.43;;
64903;SDS011;51401;48.882;12.598;2023-05-10T06:34:42;9.82;;;7.72;;
64903;SDS011;51401;48.882;12.598;2023-05-10T06:37:08;12.70;;;7.93;;
64903;SDS011;51401;48.882;12.598;2023-05-10T06:39:33;11.48;;;7.55;;
64903;SDS011;51401;48.882;12.598;2023-05-10T06:41:59;9.73;;;7.20;;
64903;SDS011;51401;48.882;12.598;2023-05-10T06:44:24;10.75;;;7.95;;
64903;SDS011;51401;48.882;12.598;2023-05-10T06:46:49;11.65;;;7.25;;
64903;SDS011;51401;48.882;12.598;2023-05-10T06:49:15;9.68;;;7.93;;
64903;SDS011;51401;48.882;12.598;2023-05-10T06:51:40;10.25;;;7.68;;
64903;SDS011;51401;48.882;12.598;2023-05-10T06:54:06;10.97;;;8.33;;
64903;SDS011;51401;48.882;12.598;2023-05-10T06:56:31;10.15;;;7.80;;
64903;SDS011;51401;48.882;12.598;2023-05-10T06:58:57;10.77;;;7.88;;
64903;SDS011;51401;48.882;12.598;2023-05-10T07:01:22;12.25;;;8.75;;
64903;SDS011;51401;48.882;12.598;2023-05-10T07:03:47;11.18;;;8.60;;
64903;SDS011;51401;48.882;12.598;2023-05-10T07:06:13;12.60;;;8.10;;
64903;SDS011;51401;48.882;12.598;2023-05-10T07:08:38;10.60;;;7.93;;
64903;SDS011;51401;48.882;12.598;2023-05-10T07:11:04;12.70;;;9.10;;
64903;SDS011;51401;48.882;12.598;2023-05-10T07:13:32;14.15;;;9.98;;
64903;SDS011;51401;48.882;12.598;2023-05-10T07:15:59;12.18;;;8.23;;
64903;SDS011;51401;48.882;12.598;2023-05-10T07:18:25;10.68;;;8.57;;
64903;SDS011;51401;48.882;12.598;2023-05-10T07:20:50;13.65;;;9.27;;
64903;SDS011;51401;48.882;12.598;2023-05-10T07:23:16;11.10;;;8.15;;
64903;SDS011;51401;48.882;12.598;2023-05-10T07:25:48;13.68;;;9.73;;
64903;SDS011;51401;48.882;12.598;2023-05-10T07:28:14;11.15;;;8.40;;
64903;SDS011;51401;48.882;12.598;2023-05-10T07:30:41;11.05;;;8.30;;
64903;SDS011;51401;48.882;12.598;2023-05-10T07:33:06;12.07;;;8.85;;
64903;SDS011;51401;48.882;12.598;2023-05-10T07:35:33;14.10;;;9.52;;
64903;SDS011;51401;48.882;12.598;2023-05-10T07:37:59;10.82;;;8.32;;
64903;SDS011;51401;48.882;12.598;2023-05-10T07:40:24;11.18;;;8.40;;
64903;SDS011;51401;48.882;12.598;2023-05-10T07:42:50;11.23;;;7.97;;
64903;SDS011;51401;48.882;12.598;2023-05-10T07:45:16;11.93;;;7.90;;
64903;SDS011;51401;48.882;12.598;2023-05-10T07:47:41;8.48;;;7.53;;
64903;SDS011;51401;48.882;12.598;2023-05-10T07:50:06;10.43;;;8.43;;
64903;SDS011;51401;48.882;12.598;2023-05-10T07:52:32;9.40;;;7.32;;
64903;SDS011;51401;48.882;12.598;2023-05-10T07:54:57;11.07;;;7.88;;
64903;SDS011;51401;48.882;12.598;2023-05-10T07:57:23;9.63;;;8.38;;
64903;SDS011;51401;48.882;12.598;2023-05-10T07:59:48;12.13;;;8.53;;
64903;SDS011;51401;48.882;12.598;2023-05-10T08:02:13;10.13;;;7.67;;
64903;SDS011;51401;48.882;12.598;2023-05-10T08:04:38;10.95;;;8.50;;
64903;SDS011;51401;48.882;12.598;2023-05-10T08:07:04;9.37;;;7.83;;
64903;SDS011;51401;48.882;12.598;2023-05-10T08:09:29;10.27;;;7.53;;
64903;SDS011;51401;48.882;12.598;2023-05-10T08:11:54;10.87;;;8.40;;
64903;SDS011;51401;48.882;12.598;2023-05-10T08:14:20;8.70;;;7.75;;
64903;SDS011;51401;48.882;12.598;2023-05-10T08:16:45;9.52;;;7.70;;
64903;SDS011;51401;48.882;12.598;2023-05-10T08:19:10;9.68;;;8.23;;
64903;SDS011;51401;48.882;12.598;2023-05-10T08:21:35;10.67;;;8.20;;
64903;SDS011;51401;48.882;12.598;2023-05-10T08:24:01;9.70;;;7.90;;
64903;SDS011;51401;48.882;12.598;2023-05-10T08:26:26;10.93;;;7.15;;
64903;SDS011;51401;48.882;12.598;2023-05-10T08:28:52;8.90;;;7.22;;
64903;SDS011;51401;48.882;12.598;2023-05-10T08:31:17;12.43;;;9.15;;
64903;SDS011;51401;48.882;12.598;2023-05-10T08:33:43;10.07;;;7.78;;
64903;SDS011;51401;48.882;12.598;2023-05-10T08:36:09;10.40;;;8.13;;
64903;SDS011;51401;48.882;12.598;2023-05-10T08:38:34;11.83;;;9.23;;
64903;SDS011;51401;48.882;12.598;2023-05-10T08:40:59;10.70;;;8.68;;
64903;SDS011;51401;48.882;12.598;2023-05-10T08:43:27;10.63;;;7.53;;
64903;SDS011;51401;48.882;12.598;2023-05-10T08:45:56;8.98;;;7.57;;
64903;SDS011;51401;48.882;12.598;2023-05-10T08:48:25;10.85;;;7.93;;
64903;SDS011;51401;48.882;12.598;2023-05-10T08:50:53;10.02;;;7.85;;
64903;SDS011;51401;48.882;12.598;2023-05-10T08:53:22;12.32;;;9.38;;
64903;SDS011;51401;48.882;12.598;2023-05-10T08:55:51;13.88;;;10.95;;
64903;SDS011;51401;48.882;12.598;2023-05-10T08:58:17;10.68;;;8.48;;
64903;SDS011;51401;48.882;12.598;2023-05-10T09:00:44;11.15;;;9.57;;
64903;SDS011;51401;48.882;12.598;2023-05-10T09:03:10;12.05;;;9.10;;
64903;SDS011;51401;48.882;12.598;2023-05-10T09:05:36;10.57;;;8.98;;
64903;SDS011;51401;48.882;12.598;2023-05-10T09:08:02;10.32;;;8.43;;
64903;SDS011;51401;48.882;12.598;2023-05-10T09:10:27;12.13;;;9.02;;
64903;SDS011;51401;48.882;12.598;2023-05-10T09:12:56;11.95;;;9.30;;
64903;SDS011;51401;48.882;12.598;2023-05-10T09:15:22;11.23;;;8.88;;
64903;SDS011;51401;48.882;12.598;2023-05-10T09:17:47;10.30;;;8.57;;
64903;SDS011;51401;48.882;12.598;2023-05-10T09:20:14;9.82;;;8.52;;
64903;SDS011;51401;48.882;12.598;2023-05-10T09:22:40;10.13;;;7.93;;
64903;SDS011;51401;48.882;12.598;2023-05-10T09:27:35;8.90;;;8.05;;
64903;SDS011;51401;48.882;12.598;2023-05-10T09:30:01;12.25;;;9.77;;
64903;SDS011;51401;48.882;12.598;2023-05-10T09:32:39;9.95;;;8.23;;
64903;SDS011;51401;48.882;12.598;2023-05-10T09:35:06;7.80;;;6.22;;
64903;SDS011;51401;48.882;12.598;2023-05-10T09:37:36;8.15;;;6.10;;
64903;SDS011;51401;48.882;12.598;2023-05-10T09:40:04;7.03;;;5.78;;
64903;SDS011;51401;48.882;12.598;2023-05-10T09:42:30;6.82;;;5.40;;
64903;SDS011;51401;48.882;12.598;2023-05-10T09:44:59;7.63;;;5.95;;
64903;SDS011;51401;48.882;12.598;2023-05-10T09:47:26;7.72;;;5.90;;
64903;SDS011;51401;48.882;12.598;2023-05-10T09:49:52;8.65;;;5.70;;
64903;SDS011;51401;48.882;12.598;2023-05-10T09:52:20;7.00;;;6.07;;
64903;SDS011;51401;48.882;12.598;2023-05-10T09:54:52;7.15;;;5.55;;
64903;SDS011;51401;48.882;12.598;2023-05-10T09:57:22;8.05;;;5.22;;
64903;SDS011;51401;48.882;12.598;2023-05-10T09:59:48;6.83;;;6.00;;
64903;SDS011;51401;48.882;12.598;2023-05-10T10:02:18;7.78;;;5.70;;
64903;SDS011;51401;48.882;12.598;2023-05-10T10:04:44;7.85;;;5.60;;
64903;SDS011;51401;48.882;12.598;2023-05-10T10:07:09;8.65;;;5.68;;
64903;SDS011;51401;48.882;12.598;2023-05-10T10:09:35;7.80;;;5.78;;
64903;SDS011;51401;48.882;12.598;2023-05-10T10:12:01;6.10;;;5.35;;
64903;SDS011;51401;48.882;12.598;2023-05-10T10:14:27;7.28;;;6.55;;
64903;SDS011;51401;48.882;12.598;2023-05-10T10:16:53;6.95;;;5.45;;
64903;SDS011;51401;48.882;12.598;2023-05-10T10:19:19;6.30;;;5.32;;
64903;SDS011;51401;48.882;12.598;2023-05-10T10:21:45;5.97;;;5.38;;
64903;SDS011;51401;48.882;12.598;2023-05-10T10:24:11;7.28;;;5.93;;
64903;SDS011;51401;48.882;12.598;2023-05-10T10:26:36;6.65;;;5.45;;
64903;SDS011;51401;48.882;12.598;2023-05-10T10:31:54;6.60;;;5.25;;
64903;SDS011;51401;48.882;12.598;2023-05-10T10:34:41;6.60;;;5.47;;
64903;SDS011;51401;48.882;12.598;2023-05-10T10:37:06;7.68;;;6.15;;
64903;SDS011;51401;48.882;12.598;2023-05-10T10:39:31;6.00;;;5.38;;
64903;SDS011;51401;48.882;12.598;2023-05-10T10:41:58;6.47;;;5.57;;
64903;SDS011;51401;48.882;12.598;2023-05-10T10:47:05;5.78;;;4.55;;
64903;SDS011;51401;48.882;12.598;2023-05-10T10:54:52;5.53;;;4.80;;
64903;SDS011;51401;48.882;12.598;2023-05-10T10:57:21;6.55;;;5.13;;
64903;SDS011;51401;48.882;12.598;2023-05-10T10:59:47;5.53;;;4.90;;
64903;SDS011;51401;48.882;12.598;2023-05-10T11:10:23;6.25;;;4.72;;
64903;SDS011;51401;48.882;12.598;2023-05-10T11:12:59;5.75;;;5.15;;
64903;SDS011;51401;48.882;12.598;2023-05-10T11:15:33;5.65;;;4.63;;
64903;SDS011;51401;48.882;12.598;2023-05-10T11:18:00;5.32;;;4.40;;
64903;SDS011;51401;48.882;12.598;2023-05-10T11:20:42;5.65;;;4.78;;
64903;SDS011;51401;48.882;12.598;2023-05-10T11:23:13;5.18;;;4.68;;
64903;SDS011;51401;48.882;12.598;2023-05-10T11:25:44;6.03;;;4.97;;
64903;SDS011;51401;48.882;12.598;2023-05-10T11:28:13;7.45;;;4.80;;
64903;SDS011;51401;48.882;12.598;2023-05-10T11:30:39;5.85;;;4.88;;
64903;SDS011;51401;48.882;12.598;2023-05-10T11:33:06;6.78;;;5.38;;
64903;SDS011;51401;48.882;12.598;2023-05-10T11:35:39;5.63;;;4.85;;
64903;SDS011;51401;48.882;12.598;2023-05-10T11:38:08;5.78;;;4.30;;
64903;SDS011;51401;48.882;12.598;2023-05-10T11:40:34;5.50;;;4.60;;
64903;SDS011;51401;48.882;12.598;2023-05-10T11:43:00;4.20;;;3.80;;
64903;SDS011;51401;48.882;12.598;2023-05-10T11:45:26;4.38;;;3.70;;
64903;SDS011;51401;48.882;12.598;2023-05-10T11:47:52;4.25;;;3.85;;
64903;SDS011;51401;48.882;12.598;2023-05-10T11:50:18;6.90;;;6.20;;
64903;SDS011;51401;48.882;12.598;2023-05-10T11:52:43;7.32;;;6.13;;
64903;SDS011;51401;48.882;12.598;2023-05-10T11:55:08;6.23;;;4.93;;
64903;SDS011;51401;48.882;12.598;2023-05-10T11:57:34;18.35;;;11.80;;
64903;SDS011;51401;48.882;12.598;2023-05-10T12:00:00;12.48;;;9.02;;
64903;SDS011;51401;48.882;12.598;2023-05-10T12:02:28;6.68;;;5.30;;
64903;SDS011;51401;48.882;12.598;2023-05-10T12:04:54;5.05;;;4.03;;
64903;SDS011;51401;48.882;12.598;2023-05-10T12:07:20;6.95;;;5.53;;
64903;SDS011;51401;48.882;12.598;2023-05-10T12:12:40;4.15;;;3.58;;
64903;SDS011;51401;48.882;12.598;2023-05-10T12:15:10;4.45;;;3.38;;
64903;SDS011;51401;48.882;12.598;2023-05-10T12:17:56;4.57;;;4.07;;
64903;SDS011;51401;48.882;12.598;2023-05-10T12:20:23;4.22;;;3.80;;
64903;SDS011;51401;48.882;12.598;2023-05-10T12:25:18;5.07;;;4.13;;
64903;SDS011;51401;48.882;12.598;2023-05-10T12:27:51;4.43;;;3.83;;
64903;SDS011;51401;48.882;12.598;2023-05-10T12:30:21;5.28;;;4.20;;
64903;SDS011;51401;48.882;12.598;2023-05-10T12:32:48;4.43;;;3.75;;
64903;SDS011;51401;48.882;12.598;2023-05-10T12:35:14;6.25;;;4.55;;
64903;SDS011;51401;48.882;12.598;2023-05-10T12:37:40;4.15;;;3.75;;
64903;SDS011;51401;48.882;12.598;2023-05-10T12:40:06;3.40;;;3.10;;
64903;SDS011;51401;48.882;12.598;2023-05-10T12:42:33;3.90;;;3.50;;
64903;SDS011;51401;48.882;12.598;2023-05-10T12:44:58;5.05;;;3.83;;
64903;SDS011;51401;48.882;12.598;2023-05-10T12:47:24;5.22;;;3.95;;
64903;SDS011;51401;48.882;12.598;2023-05-10T12:49:49;4.20;;;3.53;;
64903;SDS011;51401;48.882;12.598;2023-05-10T12:52:16;3.33;;;2.95;;
64903;SDS011;51401;48.882;12.598;2023-05-10T12:54:41;2.97;;;2.50;;
64903;SDS011;51401;48.882;12.598;2023-05-10T12:57:06;3.57;;;2.80;;
64903;SDS011;51401;48.882;12.598;2023-05-10T12:59:31;2.93;;;2.73;;
64903;SDS011;51401;48.882;12.598;2023-05-10T13:01:57;3.20;;;2.40;;
64903;SDS011;51401;48.882;12.598;2023-05-10T13:04:22;3.13;;;2.63;;
64903;SDS011;51401;48.882;12.598;2023-05-10T13:06:48;2.90;;;2.60;;
64903;SDS011;51401;48.882;12.598;2023-05-10T13:09:13;3.23;;;2.87;;
64903;SDS011;51401;48.882;12.598;2023-05-10T13:11:38;2.67;;;2.30;;
64903;SDS011;51401;48.882;12.598;2023-05-10T13:14:03;2.80;;;2.53;;
64903;SDS011;51401;48.882;12.598;2023-05-10T13:16:29;2.85;;;2.55;;
64903;SDS011;51401;48.882;12.598;2023-05-10T13:18:54;3.28;;;2.80;;
64903;SDS011;51401;48.882;12.598;2023-05-10T13:21:19;2.90;;;2.33;;
64903;SDS011;51401;48.882;12.598;2023-05-10T13:23:45;2.90;;;2.50;;
64903;SDS011;51401;48.882;12.598;2023-05-10T13:26:11;2.92;;;2.60;;
64903;SDS011;51401;48.882;12.598;2023-05-10T13:28:36;2.60;;;2.30;;
64903;SDS011;51401;48.882;12.598;2023-05-10T13:31:03;5.10;;;2.78;;
64903;SDS011;51401;48.882;12.598;2023-05-10T13:33:28;3.33;;;2.80;;
64903;SDS011;51401;48.882;12.598;2023-05-10T13:35:54;3.30;;;3.00;;
64903;SDS011;51401;48.882;12.598;2023-05-10T13:38:19;3.40;;;2.90;;
64903;SDS011;51401;48.882;12.598;2023-05-10T13:40:44;3.00;;;2.70;;
64903;SDS011;51401;48.882;12.598;2023-05-10T13:43:10;3.88;;;3.05;;
64903;SDS011;51401;48.882;12.598;2023-05-10T13:45:35;4.35;;;2.53;;
64903;SDS011;51401;48.882;12.598;2023-05-10T13:48:00;3.03;;;2.40;;
64903;SDS011;51401;48.882;12.598;2023-05-10T13:50:25;3.03;;;2.72;;
64903;SDS011;51401;48.882;12.598;2023-05-10T13:52:51;2.40;;;2.20;;
64903;SDS011;51401;48.882;12.598;2023-05-10T13:55:17;3.07;;;2.40;;
64903;SDS011;51401;48.882;12.598;2023-05-10T13:57:42;3.72;;;2.42;;
64903;SDS011;51401;48.882;12.598;2023-05-10T14:00:08;2.75;;;2.05;;
64903;SDS011;51401;48.882;12.598;2023-05-10T14:02:34;2.55;;;2.28;;
64903;SDS011;51401;48.882;12.598;2023-05-10T14:04:59;3.22;;;2.13;;
64903;SDS011;51401;48.882;12.598;2023-05-10T14:07:25;2.93;;;2.40;;
64903;SDS011;51401;48.882;12.598;2023-05-10T14:09:50;2.95;;;2.33;;
64903;SDS011;51401;48.882;12.598;2023-05-10T14:12:16;2.47;;;2.25;;
64903;SDS011;51401;48.882;12.598;2023-05-10T14:14:41;2.95;;;2.50;;
64903;SDS011;51401;48.882;12.598;2023-05-10T14:17:07;3.72;;;2.50;;
64903;SDS011;51401;48.882;12.598;2023-05-10T14:19:32;3.55;;;2.70;;
64903;SDS011;51401;48.882;12.598;2023-05-10T14:21:58;3.10;;;2.40;;
64903;SDS011;51401;48.882;12.598;2023-05-10T14:24:24;2.58;;;2.38;;
64903;SDS011;51401;48.882;12.598;2023-05-10T14:26:49;3.40;;;2.65;;
64903;SDS011;51401;48.882;12.598;2023-05-10T14:29:18;2.38;;;2.08;;
64903;SDS011;51401;48.882;12.598;2023-05-10T14:31:43;2.80;;;2.13;;
64903;SDS011;51401;48.882;12.598;2023-05-10T14:34:09;3.67;;;2.60;;
64903;SDS011;51401;48.882;12.598;2023-05-10T14:36:34;3.45;;;2.65;;
64903;SDS011;51401;48.882;12.598;2023-05-10T14:38:59;2.60;;;2.20;;
64903;SDS011;51401;48.882;12.598;2023-05-10T14:41:24;2.35;;;1.80;;
64903;SDS011;51401;48.882;12.598;2023-05-10T14:43:56;2.45;;;1.50;;
64903;SDS011;51401;48.882;12.598;2023-05-10T14:46:21;3.17;;;2.08;;
64903;SDS011;51401;48.882;12.598;2023-05-10T14:48:46;2.00;;;1.63;;
64903;SDS011;51401;48.882;12.598;2023-05-10T14:51:12;4.03;;;2.13;;
64903;SDS011;51401;48.882;12.598;2023-05-10T14:53:38;3.30;;;1.85;;
64903;SDS011;51401;48.882;12.598;2023-05-10T14:56:04;2.80;;;1.83;;
64903;SDS011;51401;48.882;12.598;2023-05-10T14:58:30;4.22;;;1.85;;
64903;SDS011;51401;48.882;12.598;2023-05-10T15:01:14;2.60;;;2.03;;
64903;SDS011;51401;48.882;12.598;2023-05-10T15:03:44;2.85;;;1.63;;
64903;SDS011;51401;48.882;12.598;2023-05-10T15:06:38;2.17;;;1.63;;
64903;SDS011;51401;48.882;12.598;2023-05-10T15:09:03;1.65;;;1.42;;
64903;SDS011;51401;48.882;12.598;2023-05-10T15:11:29;2.40;;;1.67;;
64903;SDS011;51401;48.882;12.598;2023-05-10T15:13:54;1.75;;;1.65;;
64903;SDS011;51401;48.882;12.598;2023-05-10T15:16:20;2.83;;;1.30;;